Muskoka Airport
CYQA : now visible

Airfield :











YOU CAN JOIN US ON...

 
LOGIN :

Register | Disclaimer

   EN    FR    IT 

 









Legend :    VFR   Marginal VFR   IFR   Intensive IFR   Very Intensive IFR
Visi :
Ceiling :
>= 8 km
>= 3000ft
5 to 8 km
1000 to 3000 ft
1500m to 5 km
500 to 1000 ft
800 to 1500m
200 to 500 ft
< 800m
< 200 ft
Symbols :   Thunderstorms  Fog  Heavy snow  Heavy precipitations  Wind > 20 kt







- Airport Elevation : 925 ft
- IATA code : YQA


CYQA - Muskoka

CURRENT METAR :
  • 182000Z AUTO 21008KT 140V240 9SM SCT043 SCT050 30/18 A2988 RMK SLP118 DENSITY ALT 2900FT

EXPIRED METARs :
  • 181900Z AUTO 17006G16KT 130V260 9SM FEW040 29/18 A2990 RMK SLP125 DENSITY ALT 2700FT
  • 181800Z AUTO 19009KT 160V230 9SM SCT034 28/19 A2992 RMK SLP129 DENSITY ALT 2600FT

TAF TAF CYQA
Valid from the 18 at 20:00 until the 19 at 02:00 UTC


181938Z 1820/1902 17012KT P6SM FEW040
FM182300 17010KT P6SM SCT060 BKN170 BKN250
TEMPO 1823/1901 BKN060
FM190100 19012KT P6SM -SHRA BKN025 OVC060 RMK FCST BASED ON AUTO OBS. NXT FCST WILL BE ISSUED AT 191145Z
CZYZ FIR / North America



MET'MAP, your aeronautical weather chart ! - Copyright ORBIFLY December 2007 - Disclaimer

ORBIFLY MET'MAP TEAM :

Programming & Development : Alexandra Zaïnal
Concept & Development : Baudouin d'Aumeries
Co-Development & Prog : Marc-Olivier Méhu
Technical & hardware support : Manuel Goepfert

Contact : metmap@orbifly.com




SOURCES & CREDITS :

   NOAA       Earth
Advisory